Time;durP1;ratioP1;P1;durP2;ratioP2;P2;SDS_P1;SDS_P2;PMS_P1;PMS_P2;Temp;Humidity;BMP_temperature;BMP_pressure;BME280_temperature;BME280_humidity;BME280_pressure;Samples;Min_cycle;Max_cycle;Signal;HPM_P1;HPM_P2
2023/05/24 00:00:17;;;;;;;7.00;6.30;;;;;;;13.12;73.01;94716.84;5058966;28;20200;-64
2023/05/24 00:02:46;;;;;;;6.18;5.57;;;;;;;13.12;73.25;94714.88;5076441;28;20200;-64
2023/05/24 00:05:22;;;;;;;7.05;6.32;;;;;;;13.17;73.04;94717.28;5075876;28;20266;-64
2023/05/24 00:07:50;;;;;;;7.07;5.95;;;;;;;13.12;73.03;94712.09;5076256;28;20199;-64
2023/05/24 00:10:19;;;;;;;6.43;5.82;;;;;;;13.13;73.12;94713.69;5076233;28;20239;-64
2023/05/24 00:12:47;;;;;;;7.43;5.93;;;;;;;13.11;72.98;94715.22;5075276;28;20206;-64
2023/05/24 00:15:15;;;;;;;8.40;6.10;;;;;;;13.08;72.94;94721.53;5076153;28;20197;-65
2023/05/24 00:17:45;;;;;;;6.70;5.68;;;;;;;13.06;72.92;94716.38;5076099;28;20193;-64
2023/05/24 00:20:19;;;;;;;7.43;6.63;;;;;;;13.01;72.89;94711.19;5076136;28;20225;-64
2023/05/24 00:22:47;;;;;;;6.50;5.72;;;;;;;13.02;72.82;94712.75;5075777;28;20197;-65
2023/05/24 00:25:14;;;;;;;6.75;5.90;;;;;;;13.01;72.80;94705.63;5075741;28;20186;-64
2023/05/24 00:27:41;;;;;;;7.43;5.93;;;;;;;13.01;72.96;94711.19;5076094;28;20185;-64
2023/05/24 00:30:13;;;;;;;7.50;5.70;;;;;;;12.96;73.43;94714.25;5075937;28;20205;-64
2023/05/24 00:32:40;;;;;;;8.88;6.57;;;;;;;12.90;73.37;94715.78;5074890;28;20196;-64
2023/05/24 00:35:09;;;;;;;6.50;5.72;;;;;;;12.86;73.56;94709.41;5075992;28;20193;-64
2023/05/24 00:37:45;;;;;;;6.35;5.75;;;;;;;12.83;73.40;94699.09;5075210;28;20193;-64
2023/05/24 00:40:13;;;;;;;7.13;6.45;;;;;;;12.83;73.36;94702.66;5074787;28;20208;-64
2023/05/24 00:42:44;;;;;;;6.85;6.13;;;;;;;12.77;73.40;94696.63;5075628;28;20189;-64
2023/05/24 00:45:15;;;;;;;7.55;6.53;;;;;;;12.76;73.66;94705.31;5075191;28;20208;-64
2023/05/24 00:47:43;;;;;;;7.15;6.30;;;;;;;12.69;73.59;94702.47;5075827;28;20216;-64
2023/05/24 00:50:16;;;;;;;6.85;6.13;;;;;;;12.55;73.89;94699.50;5074193;28;20225;-64
2023/05/24 00:52:47;;;;;;;7.32;6.00;;;;;;;12.45;73.77;94701.72;5075706;28;20189;-64
2023/05/24 00:55:16;;;;;;;11.75;7.60;;;;;;;12.36;73.14;94705.97;5075483;28;20196;-64
2023/05/24 00:57:47;;;;;;;7.32;5.97;;;;;;;12.22;73.83;94701.81;5074700;28;20201;-64
2023/05/24 01:00:18;;;;;;;8.00;5.85;;;;;;;12.18;73.57;94702.94;5074424;28;20235;-64
2023/05/24 01:02:47;;;;;;;5.78;5.10;;;;;;;12.22;73.93;94703.78;5075293;28;20209;-64
2023/05/24 01:05:17;;;;;;;6.47;5.72;;;;;;;12.33;73.66;94709.47;5074866;28;20203;-64
2023/05/24 01:07:57;;;;;;;6.10;5.47;;;;;;;12.41;72.98;94711.16;5074162;28;20671;-64
2023/05/24 01:10:32;;;;;;;6.25;5.65;;;;;;;12.45;73.56;94703.72;5074147;28;20301;-64
2023/05/24 01:13:07;;;;;;;8.18;5.88;;;;;;;12.45;73.57;94706.47;5074219;28;20212;-64
2023/05/24 01:15:45;;;;;;;7.10;5.80;;;;;;;12.43;73.18;94712.38;5074554;28;20214;-64
2023/05/24 01:18:17;;;;;;;6.68;5.63;;;;;;;12.44;73.77;94711.22;5074594;28;20598;-64
2023/05/24 01:20:46;;;;;;;7.03;6.28;;;;;;;12.47;73.98;94717.97;5075172;28;20186;-64
2023/05/24 01:23:33;;;;;;;6.20;5.70;;;;;;;12.38;73.99;94718.25;5074681;28;20204;-64
2023/05/24 01:26:40;;;;;;;7.47;6.53;;;;;;;12.23;74.09;94717.22;5074150;28;20203;-64
2023/05/24 01:29:08;;;;;;;7.82;6.35;;;;;;;12.22;74.33;94718.41;5074915;28;20235;-64
2023/05/24 01:31:39;;;;;;;6.15;5.57;;;;;;;12.27;73.62;94715.34;5075158;28;20204;-64
2023/05/24 01:34:07;;;;;;;6.88;6.18;;;;;;;12.24;74.10;94718.84;5075118;28;20200;-64
2023/05/24 01:36:35;;;;;;;8.98;6.03;;;;;;;12.07;73.21;94724.09;5073824;28;20201;-64
2023/05/24 01:39:04;;;;;;;6.25;5.70;;;;;;;11.94;73.56;94721.50;5075036;28;20181;-64
2023/05/24 01:41:36;;;;;;;7.00;6.30;;;;;;;11.97;74.14;94729.06;5074906;28;20284;-64
2023/05/24 01:44:15;;;;;;;7.18;6.18;;;;;;;12.06;73.56;94719.72;5073970;28;20254;-64
2023/05/24 01:46:47;;;;;;;7.45;5.95;;;;;;;12.04;73.82;94720.09;5074102;28;20208;-64
2023/05/24 01:49:21;;;;;;;7.28;6.40;;;;;;;12.03;74.10;94721.25;5074202;28;20224;-64
2023/05/24 01:51:52;;;;;;;9.32;6.10;;;;;;;12.04;74.09;94714.56;5075045;28;20181;-64
2023/05/24 01:54:24;;;;;;;6.45;5.75;;;;;;;12.08;74.09;94718.19;5074902;28;20193;-64
2023/05/24 01:56:54;;;;;;;6.70;6.00;;;;;;;12.06;74.04;94719.72;5074319;28;20204;-64
2023/05/24 01:59:31;;;;;;;6.40;5.80;;;;;;;12.02;74.84;94714.16;5074600;28;20182;-64
2023/05/24 02:01:59;;;;;;;6.40;5.80;;;;;;;11.95;75.02;94714.81;5074843;28;20191;-64
2023/05/24 02:04:28;;;;;;;7.85;6.15;;;;;;;11.94;75.06;94718.75;5073708;28;20209;-64
2023/05/24 02:06:56;;;;;;;8.18;6.15;;;;;;;11.96;74.61;94715.63;5074782;28;20245;-64
2023/05/24 02:09:24;;;;;;;6.45;5.85;;;;;;;11.99;74.58;94710.16;5074979;28;20227;-64
2023/05/24 02:11:52;;;;;;;6.82;6.07;;;;;;;11.96;75.21;94702.59;5073991;28;20213;-64
2023/05/24 02:14:19;;;;;;;7.85;6.32;;;;;;;11.98;74.66;94702.22;5073409;28;20201;-64
2023/05/24 02:16:49;;;;;;;8.48;6.43;;;;;;;11.91;75.14;94704.88;5077036;28;20197;-64
2023/05/24 02:19:17;;;;;;;7.47;6.60;;;;;;;11.75;74.82;94703.00;5078098;28;20727;-64
2023/05/24 02:21:45;;;;;;;7.65;6.15;;;;;;;11.68;74.76;94699.34;5078056;28;20196;-64
2023/05/24 02:24:17;;;;;;;7.30;6.15;;;;;;;11.66;74.86;94704.44;5077446;28;20274;-64
2023/05/24 02:26:47;;;;;;;7.15;6.38;;;;;;;11.66;75.03;94699.72;5077113;28;20549;-64
2023/05/24 02:29:15;;;;;;;8.52;7.25;;;;;;;11.69;75.31;94696.22;5077036;28;20706;-64
2023/05/24 02:31:43;;;;;;;8.43;6.60;;;;;;;11.75;75.13;94696.69;5078263;28;20212;-64
2023/05/24 02:34:16;;;;;;;7.05;6.28;;;;;;;11.78;74.57;94695.97;5076820;28;20200;-64
2023/05/24 02:36:44;;;;;;;8.32;7.28;;;;;;;11.81;74.56;94696.00;5077730;28;20181;-64
2023/05/24 02:39:13;;;;;;;7.82;6.80;;;;;;;11.75;75.22;94696.69;5078960;28;20197;-64
2023/05/24 02:41:41;;;;;;;7.88;6.65;;;;;;;11.56;74.98;94698.34;5077176;28;20203;-64
2023/05/24 02:44:09;;;;;;;7.18;6.32;;;;;;;11.47;74.88;94702.50;5078001;28;20258;-64
2023/05/24 02:46:37;;;;;;;8.75;6.80;;;;;;;11.39;74.97;94700.78;5076693;28;20209;-64
2023/05/24 02:49:05;;;;;;;8.10;6.90;;;;;;;11.39;75.29;94700.78;5077785;28;20217;-64
2023/05/24 02:51:35;;;;;;;9.15;7.55;;;;;;;11.39;75.78;94701.59;5078314;28;20223;-63
2023/05/24 02:54:04;;;;;;;8.55;6.80;;;;;;;11.44;75.71;94703.28;5076945;28;20219;-64
2023/05/24 02:56:36;;;;;;;9.55;6.70;;;;;;;11.49;75.53;94698.22;5076785;28;20207;-63
2023/05/24 02:59:05;;;;;;;9.15;7.13;;;;;;;11.55;75.38;94709.78;5076703;28;20217;-63
2023/05/24 03:01:34;;;;;;;7.15;6.47;;;;;;;11.58;74.92;94709.03;5076845;28;20258;-63
2023/05/24 03:04:02;;;;;;;7.85;7.15;;;;;;;11.59;75.63;94710.63;5076922;28;20193;-63
2023/05/24 03:06:30;;;;;;;8.05;6.35;;;;;;;11.63;75.88;94719.78;5077529;28;20189;-63
2023/05/24 03:08:59;;;;;;;7.30;6.57;;;;;;;11.66;75.86;94724.56;5076685;28;20266;-64
2023/05/24 03:11:28;;;;;;;7.50;6.60;;;;;;;11.68;75.55;94725.00;5077675;28;20185;-64
2023/05/24 03:13:56;;;;;;;7.50;6.78;;;;;;;11.72;75.78;94725.06;5077557;28;20200;-63
2023/05/24 03:16:24;;;;;;;8.38;6.78;;;;;;;11.75;75.59;94727.88;5077070;28;20207;-63
2023/05/24 03:18:54;;;;;;;8.13;7.05;;;;;;;11.78;75.54;94734.63;5076255;28;20237;-63
2023/05/24 03:21:23;;;;;;;10.50;7.25;;;;;;;11.78;74.98;94727.13;5077036;28;20633;-63
2023/05/24 03:23:59;;;;;;;8.60;7.70;;;;;;;11.79;75.45;94727.94;5077569;28;20184;-63
2023/05/24 03:26:31;;;;;;;9.65;8.05;;;;;;;11.80;75.27;94722.06;5076838;28;20193;-63
2023/05/24 03:29:01;;;;;;;8.57;7.22;;;;;;;11.81;75.63;94734.69;5076773;28;20189;-63
2023/05/24 03:31:31;;;;;;;8.48;7.50;;;;;;;11.80;75.75;94732.28;5076317;28;20193;-63
2023/05/24 03:34:00;;;;;;;11.43;7.40;;;;;;;11.82;75.43;94735.50;5077091;28;20177;-63
2023/05/24 03:36:31;;;;;;;9.20;7.78;;;;;;;11.82;75.79;94733.53;5076123;28;20193;-63
2023/05/24 03:38:59;;;;;;;8.57;7.68;;;;;;;11.83;75.69;94748.13;5076257;28;20228;-63
2023/05/24 03:41:32;;;;;;;7.78;6.97;;;;;;;11.84;76.04;94733.19;5076872;28;20185;-63
2023/05/24 03:44:02;;;;;;;8.55;7.25;;;;;;;11.86;75.65;94733.63;5076642;28;20594;-64
2023/05/24 03:46:32;;;;;;;10.07;7.82;;;;;;;11.87;75.55;94735.19;5077004;28;20186;-64
2023/05/24 03:49:03;;;;;;;9.20;8.18;;;;;;;11.88;76.39;94733.25;5075927;28;20208;-64
2023/05/24 03:51:31;;;;;;;9.38;7.97;;;;;;;11.86;76.50;94741.91;5076426;28;20193;-64
2023/05/24 03:54:00;;;;;;;10.77;7.40;;;;;;;11.84;76.42;94733.19;5076361;28;20262;-64
2023/05/24 03:56:29;;;;;;;10.38;7.82;;;;;;;11.83;76.52;94737.09;5075610;28;20197;-64
2023/05/24 03:59:02;;;;;;;9.93;7.82;;;;;;;11.79;76.43;94739.78;5075793;28;20201;-64
2023/05/24 04:01:31;;;;;;;9.88;8.07;;;;;;;11.79;76.68;94739.00;5076539;28;20192;-64
2023/05/24 04:04:00;;;;;;;8.60;7.65;;;;;;;11.78;76.93;94742.94;5076533;28;20219;-64
2023/05/24 04:06:31;;;;;;;8.48;7.57;;;;;;;11.86;77.05;94735.59;5075416;28;20211;-64
2023/05/24 04:09:03;;;;;;;8.70;7.80;;;;;;;11.93;77.03;94736.50;5076352;28;20220;-64
2023/05/24 04:11:39;;;;;;;11.35;7.97;;;;;;;11.96;77.15;94737.72;5074569;28;20232;-64
2023/05/24 04:14:10;;;;;;;10.93;7.72;;;;;;;11.99;77.14;94740.56;5075442;28;20188;-64
2023/05/24 04:16:43;;;;;;;10.55;7.68;;;;;;;12.08;77.17;94743.06;5075040;28;20587;-64
2023/05/24 04:19:14;;;;;;;8.57;7.70;;;;;;;12.13;77.33;94739.16;5058236;28;20232;-64
2023/05/24 04:21:42;;;;;;;8.70;7.65;;;;;;;12.15;77.15;94745.94;5075798;28;20680;-64
2023/05/24 04:24:10;;;;;;;11.98;7.50;;;;;;;12.18;77.05;94745.19;5076177;28;20189;-64
2023/05/24 04:26:46;;;;;;;9.23;7.90;;;;;;;12.25;77.19;94736.22;5075000;28;20204;-64
2023/05/24 04:29:17;;;;;;;14.85;9.65;;;;;;;12.35;76.82;94751.38;5075202;28;20212;-65
2023/05/24 04:31:47;;;;;;;12.88;9.57;;;;;;;12.43;76.70;94742.81;5075893;28;20270;-65
2023/05/24 04:34:16;;;;;;;11.45;8.45;;;;;;;12.48;75.93;94741.69;5074908;28;20197;-65
2023/05/24 04:36:44;;;;;;;11.23;8.93;;;;;;;12.52;76.26;94750.84;5075843;28;20192;-65
2023/05/24 04:39:11;;;;;;;11.70;8.18;;;;;;;12.61;75.75;94750.59;5075346;28;20212;-65
2023/05/24 04:41:51;;;;;;;8.88;7.97;;;;;;;12.64;75.76;94749.84;5075649;28;20181;-65
2023/05/24 04:44:27;;;;;;;10.07;8.18;;;;;;;12.70;75.38;94757.41;5074852;28;20208;-65
2023/05/24 04:46:59;;;;;;;9.85;8.43;;;;;;;12.77;75.24;94762.25;5074776;28;20536;-65
2023/05/24 04:49:31;;;;;;;9.57;8.48;;;;;;;12.84;75.11;94764.34;5074503;28;20201;-65
2023/05/24 04:52:02;;;;;;;8.75;7.90;;;;;;;12.92;74.96;94766.00;5074721;28;20205;-65
2023/05/24 04:54:31;;;;;;;11.07;8.13;;;;;;;12.97;74.83;94772.03;5075213;28;20204;-65
2023/05/24 04:57:01;;;;;;;12.32;8.70;;;;;;;13.02;74.52;94763.38;5075198;28;20203;-64
2023/05/24 04:59:28;;;;;;;10.73;8.93;;;;;;;13.05;74.15;94766.59;5075514;28;20262;-65
2023/05/24 05:01:58;;;;;;;9.68;8.05;;;;;;;13.02;73.84;94770.91;5075252;28;20182;-65
2023/05/24 05:04:26;;;;;;;11.05;9.23;;;;;;;13.02;73.85;94768.13;5074436;28;20208;-65
2023/05/24 05:06:57;;;;;;;13.48;9.45;;;;;;;13.02;74.11;94768.13;5074766;28;20251;-64
2023/05/24 05:09:27;;;;;;;10.25;9.15;;;;;;;13.05;74.41;94772.91;5075086;28;20250;-64
2023/05/24 05:11:55;;;;;;;10.30;9.30;;;;;;;13.09;73.70;94784.03;5075329;28;20215;-65
2023/05/24 05:14:29;;;;;;;11.05;9.60;;;;;;;13.10;73.57;94778.13;5074521;28;20208;-65
2023/05/24 05:16:58;;;;;;;10.90;9.80;;;;;;;13.13;73.80;94777.38;5075617;28;20227;-64
2023/05/24 05:19:25;;;;;;;12.05;9.70;;;;;;;13.15;73.47;94777.00;5074650;28;20362;-65
2023/05/24 05:21:54;;;;;;;11.10;9.98;;;;;;;13.18;73.14;94779.81;5075205;28;20246;-65
2023/05/24 05:24:20;;;;;;;10.13;9.13;;;;;;;13.21;73.71;94784.59;5074257;28;20208;-65
2023/05/24 05:26:51;;;;;;;10.38;9.45;;;;;;;13.28;73.79;94781.13;5074822;28;20209;-64
2023/05/24 05:29:21;;;;;;;10.48;8.88;;;;;;;13.32;73.56;94784.75;5074293;28;20197;-65
2023/05/24 05:31:58;;;;;;;10.27;9.27;;;;;;;13.36;73.56;94771.75;5075197;28;20627;-66
2023/05/24 05:34:26;;;;;;;10.43;9.20;;;;;;;13.39;73.83;94782.06;5074254;28;20231;-63
2023/05/24 05:36:56;;;;;;;9.77;8.77;;;;;;;13.45;73.45;94794.41;5074402;28;20200;-64
2023/05/24 05:39:27;;;;;;;10.52;9.55;;;;;;;13.49;73.54;94773.09;5075468;28;20199;-64
2023/05/24 05:41:55;;;;;;;10.98;9.63;;;;;;;13.52;74.06;94776.28;5075210;28;20193;-63
2023/05/24 05:44:27;;;;;;;10.00;9.00;;;;;;;13.60;73.87;94778.75;5075002;28;20569;-64
2023/05/24 05:46:57;;;;;;;12.52;9.98;;;;;;;13.66;73.42;94780.00;5074038;28;20208;-64
2023/05/24 05:49:25;;;;;;;10.55;8.90;;;;;;;13.71;72.66;94781.63;5074368;28;20204;-64
2023/05/24 05:51:53;;;;;;;12.48;9.05;;;;;;;13.73;72.85;94788.41;5077772;28;20219;-64
2023/05/24 05:54:23;;;;;;;10.35;9.35;;;;;;;13.76;72.80;94789.59;5078204;28;20189;-63
2023/05/24 05:56:54;;;;;;;10.30;9.40;;;;;;;13.78;72.63;94790.03;5078052;28;20239;-64
2023/05/24 05:59:20;;;;;;;9.93;8.93;;;;;;;13.84;72.88;94796.03;5077885;28;20291;-63
2023/05/24 06:01:50;;;;;;;10.93;9.88;;;;;;;13.89;72.32;94790.94;5078974;28;20274;-64
2023/05/24 06:04:22;;;;;;;10.63;9.25;;;;;;;13.96;71.70;94798.53;5077916;28;20215;-63
2023/05/24 06:06:51;;;;;;;10.55;9.45;;;;;;;14.01;71.11;94797.38;5077430;28;20576;-64
2023/05/24 06:09:20;;;;;;;13.65;10.00;;;;;;;14.05;71.53;94799.03;5077706;28;20643;-63
2023/05/24 06:11:47;;;;;;;11.35;10.35;;;;;;;14.07;71.91;94791.09;5078517;28;20216;-63
2023/05/24 06:14:18;;;;;;;11.32;9.70;;;;;;;14.12;71.44;94795.50;5077739;28;20266;-64
2023/05/24 06:16:51;;;;;;;10.93;9.35;;;;;;;14.21;71.03;94796.78;5077652;28;20205;-63
2023/05/24 06:19:25;;;;;;;10.50;9.48;;;;;;;14.28;70.23;94798.03;5078094;28;20233;-64
2023/05/24 06:21:56;;;;;;;10.30;9.20;;;;;;;14.33;69.63;94803.22;5078284;28;20242;-64
2023/05/24 06:24:27;;;;;;;10.68;9.57;;;;;;;14.35;69.17;94793.34;5077046;28;20605;-64
2023/05/24 06:26:58;;;;;;;9.95;8.98;;;;;;;14.38;69.04;94797.31;5078129;28;20204;-63
2023/05/24 06:29:28;;;;;;;10.95;9.77;;;;;;;14.42;69.34;94792.59;5077444;28;20204;-64
2023/05/24 06:32:01;;;;;;;11.25;9.88;;;;;;;14.44;69.59;94793.78;5077445;28;20209;-64
2023/05/24 06:34:33;;;;;;;11.32;9.52;;;;;;;14.50;69.28;94797.03;5078090;28;20280;-64
2023/05/24 06:37:01;;;;;;;12.07;9.30;;;;;;;14.58;69.39;94795.13;5078209;28;20268;-64
2023/05/24 06:39:28;;;;;;;10.10;9.05;;;;;;;14.63;69.48;94800.28;5076953;28;20209;-63
2023/05/24 06:41:59;;;;;;;10.85;9.48;;;;;;;14.66;69.06;94793.97;5077686;28;20200;-63
2023/05/24 06:44:33;;;;;;;10.10;8.93;;;;;;;14.73;68.42;94802.34;5078041;28;20193;-63
2023/05/24 06:47:03;;;;;;;10.00;9.00;;;;;;;14.79;68.00;94792.50;5077855;28;20201;-63
2023/05/24 06:49:33;;;;;;;10.07;9.13;;;;;;;14.82;68.22;94793.72;5077517;28;20201;-63
2023/05/24 06:52:02;;;;;;;9.73;8.77;;;;;;;14.84;68.65;94792.13;5077950;28;20255;-64
2023/05/24 06:54:30;;;;;;;8.55;7.75;;;;;;;14.88;68.18;94792.94;5077684;28;20533;-64
2023/05/24 06:57:02;;;;;;;10.05;8.15;;;;;;;14.92;67.78;94793.78;5078136;28;20196;-64
2023/05/24 06:59:32;;;;;;;11.77;8.93;;;;;;;14.99;67.11;94787.44;5076982;28;20605;-63
2023/05/24 07:02:03;;;;;;;10.50;9.38;;;;;;;15.07;67.21;94791.06;5076566;28;20197;-63
2023/05/24 07:04:35;;;;;;;10.93;9.70;;;;;;;15.11;66.92;94789.91;5077471;28;20200;-63
2023/05/24 07:07:04;;;;;;;11.27;9.60;;;;;;;15.19;66.76;94787.97;5077547;28;20598;-64
2023/05/24 07:09:31;;;;;;;11.10;10.00;;;;;;;15.27;67.32;94784.03;5076689;28;20201;-64
2023/05/24 07:12:01;;;;;;;11.55;10.32;;;;;;;15.34;67.12;94786.84;5077551;28;20216;-63
2023/05/24 07:14:29;;;;;;;14.27;10.18;;;;;;;15.41;66.56;94784.09;5076525;28;20247;-63
2023/05/24 07:17:34;;;;;;;10.60;9.52;;;;;;;15.50;66.91;94782.94;5077136;28;20212;-63
2023/05/24 07:20:39;;;;;;;9.95;8.93;;;;;;;15.69;67.93;94779.06;5077295;28;20229;-64
2023/05/24 07:23:47;;;;;;;12.80;10.18;;;;;;;15.77;67.35;94784.25;5077679;28;20188;-63
2023/05/24 07:26:56;;;;;;;11.25;8.80;;;;;;;15.91;67.92;94788.25;5076587;28;20192;-64
2023/05/24 07:30:01;;;;;;;9.77;7.97;;;;;;;16.01;67.65;94784.69;5077341;28;20219;-63
2023/05/24 07:33:05;;;;;;;8.82;7.90;;;;;;;16.07;68.05;94783.09;5076660;28;20231;-63
2023/05/24 07:36:10;;;;;;;8.82;7.90;;;;;;;16.17;66.35;94784.31;5077114;28;20189;-63
2023/05/24 07:39:16;;;;;;;9.05;7.65;;;;;;;16.23;66.54;94791.88;5076310;28;20250;-64
2023/05/24 07:42:22;;;;;;;9.50;7.22;;;;;;;16.35;67.42;94787.91;5076872;28;20197;-64
2023/05/24 07:45:27;;;;;;;7.68;6.97;;;;;;;16.54;64.58;94792.28;5075852;28;20655;-63
2023/05/24 07:48:33;;;;;;;9.05;7.55;;;;;;;16.68;64.21;94794.28;5076220;28;20211;-64
2023/05/24 07:51:39;;;;;;;6.90;6.10;;;;;;;16.79;65.01;94793.09;5076185;28;20215;-63
2023/05/24 07:54:44;;;;;;;7.43;6.72;;;;;;;17.05;63.10;94780.72;5076050;28;20200;-63
2023/05/24 07:57:49;;;;;;;7.65;6.95;;;;;;;17.06;61.94;94778.72;5075387;28;20204;-63
2023/05/24 08:00:55;;;;;;;8.50;7.22;;;;;;;17.08;62.31;94782.69;5075883;28;20200;-63
2023/05/24 08:04:04;;;;;;;7.88;6.60;;;;;;;17.22;62.34;94779.09;5075583;28;20193;-63
2023/05/24 08:07:13;;;;;;;7.53;6.15;;;;;;;17.44;58.43;94776.22;5076439;28;20189;-64
2023/05/24 08:10:18;;;;;;;9.15;7.45;;;;;;;17.48;59.44;94772.22;5076456;28;20283;-63
2023/05/24 08:13:27;;;;;;;6.72;6.07;;;;;;;17.74;57.96;94773.69;5075966;28;20675;-63
2023/05/24 08:15:57;;;;;;;11.60;10.40;;;;;;;18.02;59.10;94775.56;5075824;28;20578;-63
2023/05/24 08:18:26;;;;;;;7.20;6.00;;;;;;;18.14;57.92;94771.50;5074995;28;20250;-63
2023/05/24 08:20:56;;;;;;;5.80;5.30;;;;;;;18.21;56.05;94767.88;5076173;28;20201;-63
2023/05/24 08:23:28;;;;;;;7.93;5.20;;;;;;;18.35;55.93;94767.75;5075391;28;20199;-63
2023/05/24 08:25:58;;;;;;;5.68;5.18;;;;;;;18.37;55.89;94770.13;5075160;28;20200;-63
2023/05/24 08:28:26;;;;;;;7.60;5.53;;;;;;;18.38;56.66;94766.94;5075998;28;20200;-63
2023/05/24 08:30:58;;;;;;;5.05;4.65;;;;;;;18.70;54.55;94771.44;5075845;28;20270;-63
2023/05/24 08:33:28;;;;;;;8.02;5.10;;;;;;;18.90;52.49;94775.28;5075626;28;20204;-64
2023/05/24 08:35:58;;;;;;;6.93;4.38;;;;;;;19.11;49.27;94770.72;5074441;28;20231;-69
2023/05/24 08:38:27;;;;;;;7.28;4.28;;;;;;;19.19;48.34;94783.41;5075056;28;20287;-63
2023/05/24 08:40:58;;;;;;;4.72;4.20;;;;;;;19.15;47.64;94774.25;5074968;28;20200;-63
2023/05/24 08:43:31;;;;;;;3.95;3.42;;;;;;;19.12;46.63;94769.50;5075488;28;20177;-63
2023/05/24 08:46:05;;;;;;;4.43;4.13;;;;;;;19.13;49.09;94774.66;5075459;28;20271;-63
2023/05/24 08:48:35;;;;;;;6.28;4.50;;;;;;;19.28;50.56;94768.91;5074566;28;20251;-63
2023/05/24 08:51:05;;;;;;;7.80;6.93;;;;;;;19.45;50.76;94762.34;5075688;28;20270;-63
2023/05/24 08:53:33;;;;;;;4.93;4.38;;;;;;;19.69;48.16;94769.66;5074915;28;20232;-63
2023/05/24 08:56:02;;;;;;;5.18;4.40;;;;;;;19.79;47.43;94767.13;5075750;28;20193;-64
2023/05/24 08:58:31;;;;;;;4.43;4.03;;;;;;;19.87;47.51;94765.84;5075391;28;20517;-63
2023/05/24 09:01:03;;;;;;;4.28;3.88;;;;;;;19.93;48.47;94767.75;5075752;28;20200;-63
2023/05/24 09:03:33;;;;;;;4.43;4.03;;;;;;;20.14;46.14;94771.44;5075505;28;20185;-64
2023/05/24 09:06:02;;;;;;;5.30;4.80;;;;;;;20.29;46.77;94763.63;5075390;28;20188;-63
2023/05/24 09:08:32;;;;;;;4.85;4.38;;;;;;;20.45;44.08;94766.59;5075398;28;20193;-63
2023/05/24 09:11:02;;;;;;;4.82;4.30;;;;;;;20.40;44.66;94764.25;5075518;28;20354;-63
2023/05/24 09:13:33;;;;;;;5.03;4.30;;;;;;;20.44;44.18;94765.81;5074333;28;20192;-64
2023/05/24 09:16:03;;;;;;;4.57;4.18;;;;;;;20.39;45.00;94762.69;5058076;28;20262;-63
2023/05/24 09:18:34;;;;;;;4.60;4.15;;;;;;;20.52;45.36;94754.53;5074348;28;20294;-63
2023/05/24 09:21:03;;;;;;;4.50;4.10;;;;;;;20.49;42.90;94756.13;5074733;28;20287;-63
2023/05/24 09:23:31;;;;;;;4.00;3.65;;;;;;;20.66;42.95;94760.69;5074085;28;20197;-64
2023/05/24 09:26:10;;;;;;;4.60;4.20;;;;;;;20.85;42.74;94759.16;5074887;28;20185;-63
2023/05/24 09:28:42;;;;;;;4.50;4.10;;;;;;;20.96;41.48;94753.34;5074380;28;20204;-63
2023/05/24 09:31:18;;;;;;;4.22;3.83;;;;;;;21.03;42.31;94749.63;5074885;28;20538;-64
2023/05/24 09:33:49;;;;;;;4.90;4.50;;;;;;;20.99;41.21;94752.50;5074545;28;20196;-63
2023/05/24 09:36:20;;;;;;;4.38;3.97;;;;;;;21.24;43.07;94751.22;5075500;28;20213;-64
2023/05/24 09:38:49;;;;;;;6.18;3.80;;;;;;;21.36;40.35;94745.03;5074920;28;20217;-63
2023/05/24 09:41:17;;;;;;;4.25;3.72;;;;;;;21.47;40.08;94744.81;5075211;28;20250;-64
2023/05/24 09:43:49;;;;;;;4.13;3.80;;;;;;;21.53;40.43;94754.31;5075380;28;20216;-63
2023/05/24 09:46:22;;;;;;;4.82;3.80;;;;;;;21.54;39.76;94750.28;5074288;28;20197;-63
2023/05/24 09:48:57;;;;;;;3.90;3.50;;;;;;;21.65;39.64;94733.25;5075499;28;20188;-63
2023/05/24 09:51:27;;;;;;;3.70;3.22;;;;;;;21.75;42.75;94747.03;5075086;28;20251;-63
2023/05/24 09:53:57;;;;;;;3.95;3.47;;;;;;;21.77;38.03;94747.38;5074642;28;20197;-63
2023/05/24 09:56:28;;;;;;;4.63;3.40;;;;;;;21.81;35.89;94747.31;5075040;28;20197;-63
2023/05/24 09:58:57;;;;;;;3.30;3.05;;;;;;;21.86;37.82;94749.63;5075256;28;20181;-63
2023/05/24 10:01:32;;;;;;;3.92;3.17;;;;;;;21.93;38.96;94738.22;5074967;28;20203;-63
2023/05/24 10:04:05;;;;;;;3.72;3.42;;;;;;;21.99;37.43;94744.91;5074942;28;20193;-63
2023/05/24 10:06:37;;;;;;;4.25;3.83;;;;;;;21.97;37.02;94738.94;5074124;28;20209;-64
2023/05/24 10:09:14;;;;;;;4.05;3.65;;;;;;;22.01;39.04;94739.66;5075006;28;20185;-64
2023/05/24 10:11:50;;;;;;;4.90;3.83;;;;;;;22.08;39.00;94727.47;5074760;28;20278;-63
2023/05/24 10:14:18;;;;;;;4.70;3.60;;;;;;;22.34;39.89;94725.69;5074847;28;20208;-64
2023/05/24 10:16:53;;;;;;;3.88;3.58;;;;;;;22.42;37.20;94726.31;5074074;28;20193;-63
2023/05/24 10:19:22;;;;;;;4.55;4.15;;;;;;;22.42;36.15;94729.91;5073607;28;20248;-64
2023/05/24 10:21:56;;;;;;;3.88;3.45;;;;;;;22.54;37.72;94719.97;5074916;28;20205;-64
2023/05/24 10:24:29;;;;;;;4.68;3.72;;;;;;;22.58;36.58;94718.66;5073885;28;20237;-64
2023/05/24 10:26:59;;;;;;;4.47;3.20;;;;;;;22.62;35.15;94721.38;5074952;28;20247;-64
2023/05/24 10:29:44;;;;;;;4.25;3.80;;;;;;;22.69;36.05;94714.78;5074825;28;20268;-64
2023/05/24 10:32:18;;;;;;;4.60;3.38;;;;;;;22.85;35.99;94725.25;5073521;28;20303;-64
2023/05/24 10:34:47;;;;;;;4.25;3.40;;;;;;;22.90;36.39;94719.09;5073634;28;20217;-64
2023/05/24 10:37:23;;;;;;;4.88;3.50;;;;;;;22.99;35.32;94716.47;5075588;28;20189;-63
2023/05/24 10:39:50;;;;;;;4.30;3.50;;;;;;;23.01;35.67;94711.19;5078668;28;20188;-63
2023/05/24 10:42:18;;;;;;;4.00;3.50;;;;;;;23.02;35.73;94705.13;5077493;28;20193;-63
2023/05/24 10:44:47;;;;;;;4.93;3.35;;;;;;;23.06;36.58;94705.03;5077217;28;20200;-64
2023/05/24 10:47:21;;;;;;;4.38;3.97;;;;;;;23.19;37.01;94711.50;5077731;28;20197;-63
2023/05/24 10:49:51;;;;;;;3.55;3.25;;;;;;;23.21;35.67;94703.41;5078360;28;20510;-63
2023/05/24 10:52:19;;;;;;;4.60;4.20;;;;;;;23.27;39.00;94704.44;5078013;28;20213;-63
2023/05/24 10:55:04;;;;;;;3.47;3.22;;;;;;;23.46;35.82;94705.53;5077049;28;20189;-63
2023/05/24 10:57:32;;;;;;;4.00;3.65;;;;;;;23.52;37.89;94695.28;5077993;28;20260;-64
2023/05/24 11:00:40;;;;;;;4.05;3.60;;;;;;;23.64;36.55;94687.31;5078291;28;20251;-63
2023/05/24 11:03:11;;;;;;;4.20;3.65;;;;;;;23.58;35.39;94681.47;5074159;28;20209;-63
2023/05/24 11:05:51;;;;;;;4.93;3.60;;;;;;;23.61;36.11;94686.22;5077782;28;20208;-63
2023/05/24 11:08:23;;;;;;;4.30;3.90;;;;;;;23.59;35.08;94685.06;5077250;28;20210;-64
2023/05/24 11:10:51;;;;;;;4.20;3.90;;;;;;;23.62;37.13;94687.00;5077831;28;20228;-63
2023/05/24 11:13:20;;;;;;;4.10;3.75;;;;;;;23.65;37.45;94677.66;5077708;28;20209;-63
2023/05/24 11:15:51;;;;;;;4.35;3.97;;;;;;;23.78;36.24;94684.13;5077019;28;20205;-63
2023/05/24 11:18:24;;;;;;;4.03;3.53;;;;;;;23.75;33.93;94680.19;5076506;28;20306;-63
2023/05/24 11:20:52;;;;;;;4.57;3.95;;;;;;;23.71;35.62;94673.88;5077459;28;20185;-63
2023/05/24 11:23:22;;;;;;;4.75;4.00;;;;;;;23.80;35.58;94672.41;5077532;28;20177;-63
2023/05/24 11:25:52;;;;;;;4.40;4.00;;;;;;;23.90;35.90;94668.50;5076912;28;20372;-64
2023/05/24 11:28:22;;;;;;;5.18;3.90;;;;;;;23.95;35.57;94677.16;5076381;28;20197;-63
2023/05/24 11:30:52;;;;;;;5.35;3.70;;;;;;;23.93;34.77;94671.19;5076132;28;20189;-64
2023/05/24 11:33:23;;;;;;;5.22;3.53;;;;;;;23.94;37.88;94667.13;5077285;28;20204;-64
2023/05/24 11:35:55;;;;;;;5.15;4.05;;;;;;;24.01;34.44;94674.59;5077697;28;20205;-66
2023/05/24 11:38:23;;;;;;;4.07;3.78;;;;;;;24.00;36.39;94658.91;5076670;28;20204;-63
2023/05/24 11:40:51;;;;;;;5.55;3.88;;;;;;;24.03;34.01;94669.25;5076851;28;20442;-66
2023/05/24 11:43:21;;;;;;;6.85;4.07;;;;;;;24.00;36.23;94664.53;5076494;28;20189;-64
2023/05/24 11:45:53;;;;;;;4.18;3.78;;;;;;;24.17;36.81;94666.00;5075923;28;20227;-64
2023/05/24 11:48:23;;;;;;;4.10;3.80;;;;;;;24.19;34.79;94665.56;5075558;28;20197;-64
2023/05/24 11:50:56;;;;;;;5.47;3.60;;;;;;;24.13;34.81;94653.28;5077138;28;20420;-65
2023/05/24 11:53:27;;;;;;;4.38;3.50;;;;;;;24.20;34.55;94653.06;5076156;28;20260;-64
2023/05/24 11:55:55;;;;;;;4.72;3.58;;;;;;;24.33;36.17;94636.94;5076816;28;20212;-63
2023/05/24 11:58:24;;;;;;;4.40;4.00;;;;;;;24.48;36.89;94638.06;5076949;28;20189;-66